METAR Data
IDs: Format: Raw Decoded Include TAF

Data at: 0226 UTC 29 Nov 2020

METAR for:KSUX (Sioux City/Day Fld, IA, US)
Text:KSUX 290152Z AUTO 13006KT 10SM CLR 01/M03 A2995 RMK AO2 SLP156 T00061028
Temperature: 0.6°C ( 33°F)
Dewpoint: -2.8°C ( 27°F) [RH = 78%]
Pressure (altimeter):29.95 inches Hg (1014.3 mb) [Sea level pressure: 1015.6 mb]
Winds:from the SE (130 degrees) at 7 MPH (6 knots; 3.1 m/s)
Visibility:10 or more sm (16+ km)
Ceiling:at least 12,000 feet AGL
Clouds:sky clear below 12,000 feet AGL
QC Flag:automated observation with no human augmentation